Time;durP1;ratioP1;P1;durP2;ratioP2;P2;SDS_P1;SDS_P2;PMS_P1;PMS_P2;Temp;Humidity;BMP_temperature;BMP_pressure;BME280_temperature;BME280_humidity;BME280_pressure;Samples;Min_cycle;Max_cycle;Signal;HPM_P1;HPM_P2
2022/01/09 00:00:29;;;;;;;18.50;16.42;;;;;;;;;;5071222;28;20808;-62
2022/01/09 00:02:55;;;;;;;22.83;19.75;;;;;;;;;;5074778;28;20094;-62
2022/01/09 00:05:21;;;;;;;21.25;19.05;;;;;;;;;;5076720;28;20052;-62
2022/01/09 00:07:48;;;;;;;21.08;18.10;;;;;;;;;;5075999;28;20036;-62
2022/01/09 00:10:14;;;;;;;19.70;17.55;;;;;;;;;;5075934;28;20040;-62
2022/01/09 00:12:41;;;;;;;18.73;16.15;;;;;;;;;;5059257;28;20124;-63
2022/01/09 00:15:07;;;;;;;22.50;20.10;;;;;;;;;;5075484;28;20501;-62
2022/01/09 00:17:33;;;;;;;30.23;25.23;;;;;;;;;;5074100;28;20051;-63
2022/01/09 00:19:59;;;;;;;27.58;24.00;;;;;;;;;;5057884;28;20052;-62
2022/01/09 00:22:37;;;;;;;22.25;19.63;;;;;;;;;;5070509;28;20128;-63
2022/01/09 00:25:04;;;;;;;22.65;20.23;;;;;;;;;;5073920;28;20694;-62
2022/01/09 00:27:30;;;;;;;25.75;22.95;;;;;;;;;;5072998;28;20039;-63
2022/01/09 00:29:56;;;;;;;22.92;20.50;;;;;;;;;;5074523;28;20047;-62
2022/01/09 00:32:22;;;;;;;25.27;22.27;;;;;;;;;;5071584;28;20040;-62
2022/01/09 00:34:48;;;;;;;23.25;20.77;;;;;;;;;;5071876;28;20445;-63
2022/01/09 00:37:15;;;;;;;21.85;19.65;;;;;;;;;;5074919;28;20394;-63
2022/01/09 00:39:41;;;;;;;25.90;23.17;;;;;;;;;;5071597;28;20110;-63
2022/01/09 00:42:07;;;;;;;21.15;18.80;;;;;;;;;;5070278;28;20047;-62
2022/01/09 00:44:33;;;;;;;21.48;19.23;;;;;;;;;;5078853;28;20417;-62
2022/01/09 00:47:00;;;;;;;26.98;24.17;;;;;;;;;;5075963;28;20441;-64
2022/01/09 00:49:27;;;;;;;24.52;22.00;;;;;;;;;;5063033;28;20433;-63
2022/01/09 00:51:53;;;;;;;24.70;22.10;;;;;;;;;;5071295;28;20028;-63
2022/01/09 00:54:19;;;;;;;24.30;21.77;;;;;;;;;;5078894;28;20541;-63
2022/01/09 00:56:46;;;;;;;22.20;20.10;;;;;;;;;;5056211;28;20040;-63
2022/01/09 00:59:12;;;;;;;23.63;21.08;;;;;;;;;;5059682;28;20067;-62
2022/01/09 01:01:38;;;;;;;27.75;24.75;;;;;;;;;;5076969;28;20481;-63
2022/01/09 01:04:04;;;;;;;27.80;25.05;;;;;;;;;;5049002;28;20040;-64
2022/01/09 01:06:30;;;;;;;31.38;27.98;;;;;;;;;;5051272;28;20036;-64
2022/01/09 01:08:56;;;;;;;18.02;16.33;;;;;;;;;;5076701;28;20040;-63
2022/01/09 01:11:23;;;;;;;22.33;20.23;;;;;;;;;;5076250;28;20127;-63
2022/01/09 01:13:49;;;;;;;22.10;19.67;;;;;;;;;;5062792;28;20481;-63
2022/01/09 01:16:15;;;;;;;24.27;21.77;;;;;;;;;;5077782;28;21883;-63
2022/01/09 01:18:44;;;;;;;22.85;20.45;;;;;;;;;;5080595;28;20043;-62
2022/01/09 01:21:10;;;;;;;25.60;23.00;;;;;;;;;;5079922;28;20039;-62
2022/01/09 01:23:36;;;;;;;23.23;20.92;;;;;;;;;;5100412;28;20038;-62
2022/01/09 01:26:03;;;;;;;22.92;20.48;;;;;;;;;;5094796;28;20054;-62
2022/01/09 01:28:29;;;;;;;22.30;20.00;;;;;;;;;;5093685;28;20447;-62
2022/01/09 01:30:55;;;;;;;24.00;21.10;;;;;;;;;;5077861;28;20126;-65
2022/01/09 01:33:21;;;;;;;26.05;23.40;;;;;;;;;;5079628;28;20446;-62
2022/01/09 01:35:47;;;;;;;23.35;20.92;;;;;;;;;;5099509;28;20088;-61
2022/01/09 01:38:13;;;;;;;25.88;23.25;;;;;;;;;;5098429;28;20024;-62
2022/01/09 01:40:40;;;;;;;24.42;22.02;;;;;;;;;;5079007;28;21001;-62
2022/01/09 01:43:07;;;;;;;20.90;18.48;;;;;;;;;;5100875;28;20080;-62
2022/01/09 01:45:33;;;;;;;23.27;20.88;;;;;;;;;;5079861;28;20043;-62
2022/01/09 01:48:06;;;;;;;12.32;11.05;;;;;;;;;;5078620;28;20054;-63
2022/01/09 01:50:37;;;;;;;19.88;17.95;;;;;;;;;;5080202;28;20043;-64
2022/01/09 01:53:11;;;;;;;24.33;21.92;;;;;;;;;;5076149;28;20074;-64
2022/01/09 01:55:38;;;;;;;25.88;23.05;;;;;;;;;;5077468;28;20405;-63
2022/01/09 01:58:05;;;;;;;20.15;17.90;;;;;;;;;;5057250;28;20031;-64
2022/01/09 02:00:32;;;;;;;27.10;24.00;;;;;;;;;;5064184;28;20051;-63
2022/01/09 02:02:58;;;;;;;22.58;20.23;;;;;;;;;;5081692;28;20031;-63
2022/01/09 02:05:24;;;;;;;36.97;28.98;;;;;;;;;;5079372;28;20039;-64
2022/01/09 02:07:51;;;;;;;26.90;24.20;;;;;;;;;;5052533;28;20394;-64
2022/01/09 02:10:17;;;;;;;23.95;21.55;;;;;;;;;;5076082;28;20058;-64
2022/01/09 02:12:44;;;;;;;28.35;25.27;;;;;;;;;;5064726;28;20047;-62
2022/01/09 02:15:26;;;;;;;31.60;28.20;;;;;;;;;;5058998;28;20568;-64
2022/01/09 02:17:52;;;;;;;31.17;27.80;;;;;;;;;;5101603;28;20105;-64
2022/01/09 02:20:18;;;;;;;30.40;27.10;;;;;;;;;;5099616;28;20036;-63
2022/01/09 02:22:45;;;;;;;27.92;25.00;;;;;;;;;;5093893;28;20136;-63
2022/01/09 02:25:11;;;;;;;29.35;26.25;;;;;;;;;;5061618;28;20036;-63
2022/01/09 02:27:37;;;;;;;31.98;28.02;;;;;;;;;;5080963;28;20042;-62
2022/01/09 02:30:04;;;;;;;37.20;30.92;;;;;;;;;;5078896;28;20044;-61
2022/01/09 02:32:30;;;;;;;42.35;33.00;;;;;;;;;;5077006;28;20032;-62
2022/01/09 02:34:56;;;;;;;33.13;29.52;;;;;;;;;;5062185;28;20100;-62
2022/01/09 02:37:22;;;;;;;39.15;31.73;;;;;;;;;;5074818;28;20072;-62
2022/01/09 02:39:49;;;;;;;35.10;30.83;;;;;;;;;;5081519;28;20036;-63
2022/01/09 02:42:24;;;;;;;44.40;34.42;;;;;;;;;;5080407;28;20031;-63
2022/01/09 02:44:50;;;;;;;34.78;30.55;;;;;;;;;;5077592;28;20048;-63
2022/01/09 02:47:17;;;;;;;29.23;26.15;;;;;;;;;;5078976;28;20039;-63
2022/01/09 02:49:48;;;;;;;24.83;22.42;;;;;;;;;;5082166;28;20046;-64
2022/01/09 02:52:29;;;;;;;27.23;24.40;;;;;;;;;;5074719;28;20040;-63
2022/01/09 02:57:31;;;;;;;39.45;31.55;;;;;;;;;;5096420;28;20057;-64
2022/01/09 02:59:57;;;;;;;36.75;31.63;;;;;;;;;;5078072;28;20529;-63
2022/01/09 03:02:23;;;;;;;32.90;27.10;;;;;;;;;;5078627;28;20434;-62
2022/01/09 03:04:49;;;;;;;35.00;28.92;;;;;;;;;;5059106;28;20040;-63
2022/01/09 03:07:15;;;;;;;39.58;30.83;;;;;;;;;;5059749;28;20058;-63
2022/01/09 03:09:41;;;;;;;35.47;30.02;;;;;;;;;;5076231;28;20044;-62
2022/01/09 03:12:10;;;;;;;45.72;33.30;;;;;;;;;;5077313;28;20043;-63
2022/01/09 03:14:36;;;;;;;43.28;31.77;;;;;;;;;;5077301;28;21235;-63
2022/01/09 03:17:03;;;;;;;49.47;34.53;;;;;;;;;;5095610;28;20052;-63
2022/01/09 03:19:29;;;;;;;52.88;35.78;;;;;;;;;;5077141;28;20119;-62
2022/01/09 03:21:55;;;;;;;43.08;30.60;;;;;;;;;;5078776;28;20044;-61
2022/01/09 03:24:22;;;;;;;62.75;40.00;;;;;;;;;;5097126;28;20043;-62
2022/01/09 03:26:48;;;;;;;56.58;36.75;;;;;;;;;;5075826;28;20339;-62
2022/01/09 03:29:14;;;;;;;61.65;41.50;;;;;;;;;;5062328;28;20036;-63
2022/01/09 03:31:40;;;;;;;59.10;39.85;;;;;;;;;;5080091;28;20044;-61
2022/01/09 03:34:06;;;;;;;59.13;39.70;;;;;;;;;;5097379;28;20139;-62
2022/01/09 03:36:32;;;;;;;57.75;37.88;;;;;;;;;;5077764;28;20256;-62
2022/01/09 03:38:58;;;;;;;66.85;40.55;;;;;;;;;;5057644;28;20043;-62
2022/01/09 03:41:24;;;;;;;74.03;41.33;;;;;;;;;;5092233;28;20051;-61
2022/01/09 03:43:50;;;;;;;63.63;39.33;;;;;;;;;;5068182;28;20040;-61
2022/01/09 03:46:17;;;;;;;53.85;35.55;;;;;;;;;;5093872;28;20032;-62
2022/01/09 03:48:43;;;;;;;51.75;35.83;;;;;;;;;;5078288;28;20036;-62
2022/01/09 03:51:10;;;;;;;63.75;37.67;;;;;;;;;;5096234;28;20039;-62
2022/01/09 03:53:36;;;;;;;52.85;32.80;;;;;;;;;;5094016;28;20119;-61
2022/01/09 03:56:03;;;;;;;47.78;32.00;;;;;;;;;;5075168;28;20436;-62
2022/01/09 03:58:29;;;;;;;42.58;26.25;;;;;;;;;;5078895;28;20097;-61
2022/01/09 04:00:55;;;;;;;39.47;23.17;;;;;;;;;;5058991;28;20047;-63
2022/01/09 04:03:21;;;;;;;36.63;16.85;;;;;;;;;;5096095;28;20342;-63
2022/01/09 04:05:47;;;;;;;37.67;13.88;;;;;;;;;;5058394;28;20536;-62
2022/01/09 04:08:13;;;;;;;33.65;14.40;;;;;;;;;;5080489;28;20409;-62
2022/01/09 04:10:43;;;;;;;35.30;10.80;;;;;;;;;;5078105;28;20031;-62
2022/01/09 04:13:13;;;;;;;35.35;9.48;;;;;;;;;;5080088;28;20146;-62
2022/01/09 04:15:45;;;;;;;31.13;7.10;;;;;;;;;;5096966;28;20039;-61
2022/01/09 04:18:12;;;;;;;31.35;5.57;;;;;;;;;;5094285;28;20059;-61
2022/01/09 04:20:38;;;;;;;44.25;6.40;;;;;;;;;;5096056;28;20059;-61
2022/01/09 04:23:05;;;;;;;39.58;5.13;;;;;;;;;;5076688;28;20039;-61
2022/01/09 04:25:31;;;;;;;46.50;5.28;;;;;;;;;;5078482;28;20445;-61
2022/01/09 04:27:57;;;;;;;44.15;5.05;;;;;;;;;;5078595;28;20032;-62
2022/01/09 04:30:23;;;;;;;36.47;4.07;;;;;;;;;;5098411;28;20108;-64
2022/01/09 04:32:49;;;;;;;37.08;3.92;;;;;;;;;;5100308;28;20047;-62
2022/01/09 04:35:16;;;;;;;39.88;4.53;;;;;;;;;;5080568;28;20490;-62
2022/01/09 04:37:43;;;;;;;33.78;3.60;;;;;;;;;;5096966;28;20047;-62
2022/01/09 04:40:11;;;;;;;35.10;3.47;;;;;;;;;;5080698;28;20047;-62
2022/01/09 04:43:12;;;;;;;36.75;4.30;;;;;;;;;;5082776;28;20054;-61
2022/01/09 04:45:30;;;;;;;38.50;3.78;;;;;;;;;;5080660;28;20119;-62
2022/01/09 04:48:01;;;;;;;38.15;3.00;;;;;;;;;;5100844;28;20083;-63
2022/01/09 04:50:30;;;;;;;32.70;4.03;;;;;;;;;;5097334;28;20046;-63
2022/01/09 04:53:00;;;;;;;39.80;3.92;;;;;;;;;;5098686;28;20036;-61
2022/01/09 04:55:27;;;;;;;34.33;3.72;;;;;;;;;;5078332;28;20054;-60
2022/01/09 04:57:54;;;;;;;42.95;4.10;;;;;;;;;;5101880;28;20453;-61
2022/01/09 05:00:20;;;;;;;35.17;3.55;;;;;;;;;;5080092;28;20043;-63
2022/01/09 05:02:46;;;;;;;42.60;4.82;;;;;;;;;;5064175;28;20055;-62
2022/01/09 05:05:13;;;;;;;43.45;4.93;;;;;;;;;;5062057;28;20094;-63
2022/01/09 05:07:39;;;;;;;46.50;4.88;;;;;;;;;;5077135;28;20062;-62
2022/01/09 05:10:06;;;;;;;50.63;4.30;;;;;;;;;;5093458;28;20062;-62
2022/01/09 05:12:32;;;;;;;61.10;6.32;;;;;;;;;;5063365;28;20075;-62
2022/01/09 05:14:58;;;;;;;60.80;6.25;;;;;;;;;;5082196;28;20023;-63
2022/01/09 05:17:24;;;;;;;76.00;6.65;;;;;;;;;;5080135;28;20055;-62
2022/01/09 05:19:52;;;;;;;63.17;6.45;;;;;;;;;;5078394;28;20052;-62
2022/01/09 05:22:19;;;;;;;60.13;6.13;;;;;;;;;;5073929;28;20131;-61
2022/01/09 05:24:45;;;;;;;63.75;7.30;;;;;;;;;;5079054;28;20039;-61
2022/01/09 05:27:11;;;;;;;63.70;6.90;;;;;;;;;;5095907;28;20549;-62
2022/01/09 05:29:37;;;;;;;55.55;7.05;;;;;;;;;;5079111;28;20048;-63
2022/01/09 05:32:04;;;;;;;47.67;6.20;;;;;;;;;;5061850;28;20425;-61
2022/01/09 05:34:30;;;;;;;57.58;6.57;;;;;;;;;;5096324;28;20397;-62
2022/01/09 05:36:56;;;;;;;55.85;4.80;;;;;;;;;;5095544;28;20047;-62
2022/01/09 05:39:22;;;;;;;58.38;5.70;;;;;;;;;;5091611;28;20043;-62
2022/01/09 05:41:48;;;;;;;49.03;5.63;;;;;;;;;;5084149;28;20106;-61
2022/01/09 05:44:17;;;;;;;41.58;4.28;;;;;;;;;;5063030;28;20040;-63
2022/01/09 05:46:43;;;;;;;56.03;5.43;;;;;;;;;;5074480;28;20059;-62
2022/01/09 05:49:09;;;;;;;42.53;4.70;;;;;;;;;;5079540;28;20485;-64
2022/01/09 05:51:35;;;;;;;50.45;5.57;;;;;;;;;;5093216;28;20036;-63
2022/01/09 05:54:01;;;;;;;56.42;6.10;;;;;;;;;;5095862;28;20381;-65
2022/01/09 05:56:27;;;;;;;48.47;5.72;;;;;;;;;;5074752;28;20032;-63
2022/01/09 05:58:53;;;;;;;41.65;5.28;;;;;;;;;;5084314;28;20031;-63
2022/01/09 06:01:19;;;;;;;36.35;4.10;;;;;;;;;;5097946;28;20045;-64
2022/01/09 06:03:45;;;;;;;45.42;4.40;;;;;;;;;;5077974;28;20062;-63
2022/01/09 06:06:11;;;;;;;37.22;4.10;;;;;;;;;;5082527;28;20035;-64
2022/01/09 06:08:37;;;;;;;33.40;3.63;;;;;;;;;;5081696;28;20126;-63
2022/01/09 06:11:04;;;;;;;39.58;4.53;;;;;;;;;;5079207;28;20066;-63
2022/01/09 06:13:30;;;;;;;46.97;4.78;;;;;;;;;;5074528;28;20394;-62
2022/01/09 06:15:56;;;;;;;42.53;4.15;;;;;;;;;;5060929;28;20131;-64
2022/01/09 06:18:22;;;;;;;42.50;3.95;;;;;;;;;;5079808;28;20063;-63
2022/01/09 06:20:49;;;;;;;52.65;4.85;;;;;;;;;;5078590;28;20139;-63
2022/01/09 06:23:20;;;;;;;41.25;3.97;;;;;;;;;;5064631;28;20070;-63
2022/01/09 06:25:50;;;;;;;35.70;3.35;;;;;;;;;;5083513;28;20066;-62
2022/01/09 06:28:16;;;;;;;43.17;4.50;;;;;;;;;;5089679;28;20039;-63
2022/01/09 06:30:43;;;;;;;42.40;4.60;;;;;;;;;;5079320;28;20140;-63
2022/01/09 06:33:09;;;;;;;38.10;4.45;;;;;;;;;;5075371;28;20040;-62
2022/01/09 06:35:35;;;;;;;37.58;3.95;;;;;;;;;;5081557;28;20038;-63
2022/01/09 06:38:02;;;;;;;42.00;3.72;;;;;;;;;;5099029;28;20040;-63
2022/01/09 06:40:28;;;;;;;34.50;3.67;;;;;;;;;;5078120;28;20044;-63
2022/01/09 06:42:54;;;;;;;35.50;3.67;;;;;;;;;;5072602;28;20562;-64
2022/01/09 06:45:22;;;;;;;33.70;3.47;;;;;;;;;;5061132;28;20058;-63
2022/01/09 06:47:48;;;;;;;28.17;3.03;;;;;;;;;;5077771;28;20106;-63
2022/01/09 06:50:15;;;;;;;32.33;3.83;;;;;;;;;;5057121;28;20120;-62
2022/01/09 06:52:42;;;;;;;34.00;4.65;;;;;;;;;;5079663;28;20036;-62
2022/01/09 06:55:08;;;;;;;33.28;3.47;;;;;;;;;;5077025;28;20036;-63
2022/01/09 06:57:35;;;;;;;31.52;4.18;;;;;;;;;;5060608;28;20489;-63
2022/01/09 07:00:01;;;;;;;32.47;3.58;;;;;;;;;;5080185;28;20319;-63
2022/01/09 07:02:27;;;;;;;35.95;4.38;;;;;;;;;;5083793;28;20046;-62
2022/01/09 07:04:53;;;;;;;32.08;3.30;;;;;;;;;;5095492;28;20036;-63
2022/01/09 07:07:19;;;;;;;29.45;3.15;;;;;;;;;;5096243;28;20058;-62
2022/01/09 07:09:45;;;;;;;35.80;3.72;;;;;;;;;;5060563;28;20036;-62
2022/01/09 07:12:11;;;;;;;33.67;3.20;;;;;;;;;;5057774;28;20040;-61
2022/01/09 07:14:38;;;;;;;37.20;4.45;;;;;;;;;;5101837;28;20040;-63
2022/01/09 07:17:04;;;;;;;35.75;3.53;;;;;;;;;;5077610;28;20044;-63
2022/01/09 07:19:30;;;;;;;32.72;3.63;;;;;;;;;;5077699;28;20035;-63
2022/01/09 07:21:56;;;;;;;37.20;3.88;;;;;;;;;;5078200;28;20055;-62
2022/01/09 07:24:22;;;;;;;27.02;3.15;;;;;;;;;;5094227;28;20031;-63
2022/01/09 07:26:48;;;;;;;27.48;3.20;;;;;;;;;;5077862;28;20749;-63
2022/01/09 07:29:14;;;;;;;28.55;3.28;;;;;;;;;;5039063;28;20475;-64
2022/01/09 07:31:40;;;;;;;26.92;2.83;;;;;;;;;;5095139;28;20044;-63
2022/01/09 07:34:07;;;;;;;35.63;3.35;;;;;;;;;;5056133;28;20032;-63
2022/01/09 07:36:33;;;;;;;32.88;3.30;;;;;;;;;;5075605;28;20040;-64
2022/01/09 07:38:59;;;;;;;25.83;2.90;;;;;;;;;;5059660;28;20042;-63
2022/01/09 07:41:25;;;;;;;22.02;2.40;;;;;;;;;;5081156;28;20398;-61
2022/01/09 07:43:51;;;;;;;30.90;3.38;;;;;;;;;;5060267;28;20048;-62
2022/01/09 07:46:18;;;;;;;22.48;2.60;;;;;;;;;;5094366;28;20059;-62
2022/01/09 07:48:44;;;;;;;26.67;3.47;;;;;;;;;;5077772;28;20063;-63
2022/01/09 07:51:10;;;;;;;29.00;3.08;;;;;;;;;;5077825;28;20078;-64
2022/01/09 07:53:36;;;;;;;26.25;2.50;;;;;;;;;;5071735;28;20115;-62
2022/01/09 07:56:02;;;;;;;32.45;3.30;;;;;;;;;;5063037;28;20139;-62
2022/01/09 07:58:29;;;;;;;27.42;2.72;;;;;;;;;;5080496;28;20511;-63
2022/01/09 08:00:55;;;;;;;31.80;3.33;;;;;;;;;;5061822;28;20031;-61
2022/01/09 08:03:21;;;;;;;27.20;3.55;;;;;;;;;;5074540;28;20493;-63
2022/01/09 08:05:47;;;;;;;24.17;3.20;;;;;;;;;;5081431;28;20480;-62
2022/01/09 08:08:13;;;;;;;25.27;3.30;;;;;;;;;;5067324;28;20043;-62
2022/01/09 08:10:42;;;;;;;30.85;3.03;;;;;;;;;;5093118;28;20071;-63
2022/01/09 08:13:08;;;;;;;30.75;3.15;;;;;;;;;;5071522;28;20043;-63
2022/01/09 08:15:34;;;;;;;27.00;3.42;;;;;;;;;;5080206;28;20058;-63
2022/01/09 08:18:01;;;;;;;23.42;3.10;;;;;;;;;;5076305;28;20135;-63
2022/01/09 08:20:27;;;;;;;28.13;2.80;;;;;;;;;;5079021;28;20050;-63
2022/01/09 08:22:53;;;;;;;29.65;3.42;;;;;;;;;;5071475;28;20497;-63
2022/01/09 08:25:19;;;;;;;25.80;2.60;;;;;;;;;;5047111;28;20047;-63
2022/01/09 08:27:47;;;;;;;27.52;2.78;;;;;;;;;;5073656;28;20051;-62
2022/01/09 08:30:13;;;;;;;21.20;1.65;;;;;;;;;;5095664;28;20123;-63
2022/01/09 08:32:39;;;;;;;22.70;2.65;;;;;;;;;;5076351;28;20036;-64
2022/01/09 08:35:06;;;;;;;24.13;2.67;;;;;;;;;;5078702;28;20397;-63
2022/01/09 08:37:33;;;;;;;23.80;2.17;;;;;;;;;;5056273;28;20043;-63
2022/01/09 08:39:59;;;;;;;23.70;2.45;;;;;;;;;;5096920;28;20122;-64
2022/01/09 08:42:25;;;;;;;25.38;3.08;;;;;;;;;;5060783;28;20046;-62
2022/01/09 08:44:52;;;;;;;23.50;3.05;;;;;;;;;;5077100;28;20075;-62
2022/01/09 08:47:18;;;;;;;26.35;3.17;;;;;;;;;;5077736;28;20107;-63
2022/01/09 08:49:44;;;;;;;22.63;2.53;;;;;;;;;;5075111;28;20089;-63
2022/01/09 08:52:10;;;;;;;19.65;1.88;;;;;;;;;;5099505;28;20040;-63
2022/01/09 08:54:36;;;;;;;30.35;3.13;;;;;;;;;;5069649;28;20051;-63
2022/01/09 08:57:02;;;;;;;26.85;3.05;;;;;;;;;;5073588;28;20036;-63
2022/01/09 08:59:28;;;;;;;27.05;2.95;;;;;;;;;;5083777;28;20503;-63
2022/01/09 09:01:56;;;;;;;26.77;2.47;;;;;;;;;;5093035;28;20489;-62
2022/01/09 09:04:22;;;;;;;23.15;2.08;;;;;;;;;;5073783;28;20051;-62
2022/01/09 09:06:48;;;;;;;18.42;1.30;;;;;;;;;;5085117;28;20067;-62
2022/01/09 09:09:14;;;;;;;16.17;1.73;;;;;;;;;;5097013;27;20529;-61
2022/01/09 09:11:41;;;;;;;16.00;1.25;;;;;;;;;;5082376;28;20058;-62
2022/01/09 09:14:07;;;;;;;15.68;1.65;;;;;;;;;;5079487;28;20035;-62
2022/01/09 09:16:33;;;;;;;11.63;0.93;;;;;;;;;;5096496;28;20489;-62
2022/01/09 09:18:59;;;;;;;13.52;0.95;;;;;;;;;;5083024;28;20071;-61
2022/01/09 09:21:25;;;;;;;17.27;1.80;;;;;;;;;;5097199;27;20063;-63
2022/01/09 09:23:52;;;;;;;13.57;1.17;;;;;;;;;;5102805;28;20051;-62
2022/01/09 09:26:18;;;;;;;13.32;1.10;;;;;;;;;;5102082;28;20409;-63
2022/01/09 09:28:45;;;;;;;9.05;1.20;;;;;;;;;;5066864;28;20058;-63
2022/01/09 09:31:11;;;;;;;14.43;1.73;;;;;;;;;;5078144;28;20366;-63
2022/01/09 09:33:37;;;;;;;20.27;1.42;;;;;;;;;;5096764;28;20028;-63
2022/01/09 09:36:03;;;;;;;16.10;1.70;;;;;;;;;;5081920;27;20067;-63
2022/01/09 09:38:33;;;;;;;15.45;1.38;;;;;;;;;;5081736;28;20433;-62
2022/01/09 09:40:59;;;;;;;22.00;2.47;;;;;;;;;;5079882;28;20047;-63
2022/01/09 09:43:29;;;;;;;22.80;1.90;;;;;;;;;;5078961;28;20036;-63
2022/01/09 09:45:55;;;;;;;18.30;2.15;;;;;;;;;;5101877;28;20172;-63
2022/01/09 09:48:21;;;;;;;16.60;1.67;;;;;;;;;;5060539;28;20048;-63
2022/01/09 09:50:47;;;;;;;20.38;2.00;;;;;;;;;;5080916;28;20051;-64
2022/01/09 09:53:13;;;;;;;18.50;2.28;;;;;;;;;;5063396;28;20028;-63
2022/01/09 09:55:44;;;;;;;16.77;1.65;;;;;;;;;;5095665;28;20044;-62
2022/01/09 09:58:11;;;;;;;22.77;2.15;;;;;;;;;;5078914;27;20484;-63
2022/01/09 10:00:37;;;;;;;19.90;2.28;;;;;;;;;;5097293;28;20109;-63
2022/01/09 10:03:03;;;;;;;18.55;1.75;;;;;;;;;;5077962;28;20035;-61
2022/01/09 10:05:34;;;;;;;19.92;2.00;;;;;;;;;;5073113;28;20050;-61
2022/01/09 10:08:07;;;;;;;28.20;2.83;;;;;;;;;;5074320;28;20078;-62
2022/01/09 10:10:34;;;;;;;19.88;1.85;;;;;;;;;;5091122;28;20079;-61
2022/01/09 10:13:06;;;;;;;26.60;2.17;;;;;;;;;;5110936;28;20085;-62
2022/01/09 10:15:42;;;;;;;17.08;1.75;;;;;;;;;;5092955;28;20400;-61
2022/01/09 10:18:09;;;;;;;25.27;2.72;;;;;;;;;;5090071;28;20114;-62
2022/01/09 10:20:35;;;;;;;28.35;2.63;;;;;;;;;;5091823;28;20040;-61
2022/01/09 10:23:01;;;;;;;23.00;2.00;;;;;;;;;;5110214;28;20067;-62
2022/01/09 10:25:37;;;;;;;24.50;2.95;;;;;;;;;;5109494;28;20513;-62
2022/01/09 10:28:13;;;;;;;20.17;2.45;;;;;;;;;;5109836;28;20466;-63
2022/01/09 10:30:51;;;;;;;17.23;1.77;;;;;;;;;;5091444;28;20048;-62
2022/01/09 10:33:26;;;;;;;20.60;2.00;;;;;;;;;;5091976;28;20079;-60
2022/01/09 10:35:52;;;;;;;15.57;1.48;;;;;;;;;;5111020;28;20035;-61
2022/01/09 10:38:21;;;;;;;26.08;2.55;;;;;;;;;;5091695;28;20518;-60
2022/01/09 10:40:54;;;;;;;18.35;2.33;;;;;;;;;;5110290;28;20039;-62
2022/01/09 10:43:21;;;;;;;19.13;1.60;;;;;;;;;;5109644;28;20071;-63
2022/01/09 10:45:56;;;;;;;18.98;2.10;;;;;;;;;;5091624;28;20054;-62
2022/01/09 10:48:23;;;;;;;16.90;2.20;;;;;;;;;;5109672;28;20455;-62
2022/01/09 10:50:50;;;;;;;16.10;1.58;;;;;;;;;;5091878;28;20158;-62
2022/01/09 10:53:21;;;;;;;18.73;2.15;;;;;;;;;;5110591;28;20043;-62
2022/01/09 10:56:07;;;;;;;21.02;2.05;;;;;;;;;;5091728;28;20042;-61
2022/01/09 10:58:34;;;;;;;20.08;1.92;;;;;;;;;;5090955;28;20035;-61
2022/01/09 11:01:07;;;;;;;16.25;1.83;;;;;;;;;;5091208;28;20031;-61
2022/01/09 11:03:33;;;;;;;19.02;2.58;;;;;;;;;;5090802;28;20040;-62
2022/01/09 11:06:00;;;;;;;20.20;1.90;;;;;;;;;;5091546;28;20123;-61
2022/01/09 11:08:27;;;;;;;22.52;2.08;;;;;;;;;;5090791;28;20043;-61
2022/01/09 11:10:53;;;;;;;23.13;2.03;;;;;;;;;;5091048;28;20078;-62
2022/01/09 11:13:19;;;;;;;17.13;1.92;;;;;;;;;;5091599;28;20032;-62
2022/01/09 11:16:32;;;;;;;18.50;2.67;;;;;;;;;;5089685;28;20039;-62
2022/01/09 11:18:32;;;;;;;16.98;1.65;;;;;;;;;;5090138;28;20062;-63
2022/01/09 11:20:58;;;;;;;19.40;2.70;;;;;;;;;;5108186;28;20572;-63
2022/01/09 11:23:29;;;;;;;19.83;2.00;;;;;;;;;;5073728;28;20127;-62
2022/01/09 11:25:56;;;;;;;24.95;2.85;;;;;;;;;;5073338;28;20043;-62
2022/01/09 11:28:26;;;;;;;14.77;1.63;;;;;;;;;;5108854;28;20392;-62
2022/01/09 11:30:52;;;;;;;10.90;0.80;;;;;;;;;;5090889;28;20088;-61
2022/01/09 11:33:18;;;;;;;15.48;1.85;;;;;;;;;;5109933;28;20051;-60
2022/01/09 11:35:46;;;;;;;14.77;1.40;;;;;;;;;;5091186;28;20039;-62
2022/01/09 11:38:24;;;;;;;15.88;1.80;;;;;;;;;;5073571;28;20438;-62
2022/01/09 11:40:50;;;;;;;13.80;1.30;;;;;;;;;;5090357;28;20069;-63
2022/01/09 11:43:18;;;;;;;18.65;1.92;;;;;;;;;;5089285;28;20049;-62
2022/01/09 11:45:51;;;;;;;16.00;1.83;;;;;;;;;;5090298;28;20090;-62
2022/01/09 11:48:19;;;;;;;16.67;1.85;;;;;;;;;;5107964;28;20183;-62
2022/01/09 11:51:15;;;;;;;13.40;1.05;;;;;;;;;;5073608;28;20505;-63
2022/01/09 11:53:59;;;;;;;11.02;0.98;;;;;;;;;;5085947;28;20505;-62
2022/01/09 11:56:44;;;;;;;13.10;1.15;;;;;;;;;;5108574;28;20148;-61
2022/01/09 11:59:28;;;;;;;22.52;1.88;;;;;;;;;;5108780;28;20096;-61
2022/01/09 12:02:26;;;;;;;18.63;1.33;;;;;;;;;;5077738;28;20491;-62
2022/01/09 12:04:57;;;;;;;19.30;1.70;;;;;;;;;;5097057;28;20110;-62
2022/01/09 12:07:35;;;;;;;16.10;1.35;;;;;;;;;;5102935;28;20135;-63
2022/01/09 12:10:02;;;;;;;15.45;1.50;;;;;;;;;;5093333;28;20036;-64
2022/01/09 12:12:36;;;;;;;14.45;1.35;;;;;;;;;;5065646;28;20038;-63
2022/01/09 12:15:03;;;;;;;16.23;1.63;;;;;;;;;;5074747;28;20169;-63
2022/01/09 12:17:36;;;;;;;16.95;1.63;;;;;;;;;;5072655;28;20043;-63
2022/01/09 12:20:12;;;;;;;18.67;1.63;;;;;;;;;;5070884;28;20051;-63
2022/01/09 12:22:46;;;;;;;10.95;1.27;;;;;;;;;;5097090;28;20374;-63
2022/01/09 12:25:24;;;;;;;10.43;1.35;;;;;;;;;;5096260;28;20043;-63
2022/01/09 12:27:54;;;;;;;13.35;1.27;;;;;;;;;;5071618;28;20044;-63
2022/01/09 12:30:33;;;;;;;15.63;1.70;;;;;;;;;;5075396;28;20044;-63
2022/01/09 12:33:20;;;;;;;18.20;2.20;;;;;;;;;;5072014;28;20044;-63
2022/01/09 12:35:48;;;;;;;9.73;1.70;;;;;;;;;;5076849;28;20055;-62
2022/01/09 12:38:15;;;;;;;15.63;1.83;;;;;;;;;;5074195;28;20075;-61
2022/01/09 12:40:44;;;;;;;22.45;1.67;;;;;;;;;;5079730;28;20028;-63
2022/01/09 12:43:10;;;;;;;14.88;1.50;;;;;;;;;;5103502;28;20558;-63
2022/01/09 12:45:40;;;;;;;14.70;1.63;;;;;;;;;;5095342;28;20050;-63
2022/01/09 12:48:06;;;;;;;13.70;1.25;;;;;;;;;;5080633;28;20135;-62
2022/01/09 12:50:35;;;;;;;16.38;2.22;;;;;;;;;;5080951;27;20247;-62
2022/01/09 12:53:30;;;;;;;17.42;1.73;;;;;;;;;;5085557;27;20035;-61
2022/01/09 12:55:59;;;;;;;13.70;1.02;;;;;;;;;;5074148;28;20553;-62
2022/01/09 12:58:28;;;;;;;13.05;0.80;;;;;;;;;;5062020;28;20589;-61
2022/01/09 13:00:54;;;;;;;12.38;0.73;;;;;;;;;;5075070;28;20486;-62
2022/01/09 13:03:21;;;;;;;15.10;1.27;;;;;;;;;;5104145;28;20040;-62
2022/01/09 13:05:57;;;;;;;12.77;1.05;;;;;;;;;;5089728;27;20477;-61
2022/01/09 13:08:23;;;;;;;10.10;1.27;;;;;;;;;;5081183;28;20031;-61
2022/01/09 13:11:00;;;;;;;13.32;1.38;;;;;;;;;;5075999;28;20058;-61
2022/01/09 13:13:27;;;;;;;16.25;1.88;;;;;;;;;;5068868;28;20120;-60
2022/01/09 13:15:54;;;;;;;13.35;1.17;;;;;;;;;;5089725;28;20040;-61
2022/01/09 13:18:40;;;;;;;14.05;1.33;;;;;;;;;;5072623;28;20052;-61
2022/01/09 13:21:12;;;;;;;19.83;1.80;;;;;;;;;;5073098;28;20055;-62
2022/01/09 13:23:57;;;;;;;19.90;1.70;;;;;;;;;;5090590;28;20043;-62
2022/01/09 13:26:24;;;;;;;18.25;1.85;;;;;;;;;;5055729;28;20048;-62
2022/01/09 13:28:51;;;;;;;17.20;1.55;;;;;;;;;;5055864;28;20079;-61
2022/01/09 13:31:19;;;;;;;18.63;1.95;;;;;;;;;;5071753;28;20040;-62
2022/01/09 13:34:01;;;;;;;14.90;1.75;;;;;;;;;;5090704;28;20188;-62
2022/01/09 13:36:38;;;;;;;19.02;2.33;;;;;;;;;;5072594;28;20048;-61
2022/01/09 13:39:06;;;;;;;20.05;2.35;;;;;;;;;;5090923;28;20040;-62
2022/01/09 13:41:35;;;;;;;15.95;1.50;;;;;;;;;;5071810;28;20048;-62
2022/01/09 13:44:01;;;;;;;12.00;1.48;;;;;;;;;;5055356;28;20127;-61
2022/01/09 13:46:28;;;;;;;13.25;1.35;;;;;;;;;;5072243;28;20123;-61
2022/01/09 13:48:54;;;;;;;17.40;1.45;;;;;;;;;;5071892;28;20096;-62
2022/01/09 13:51:40;;;;;;;13.93;1.35;;;;;;;;;;5071966;28;20044;-62
2022/01/09 13:54:07;;;;;;;12.75;1.40;;;;;;;;;;5071388;28;20036;-62
2022/01/09 13:56:33;;;;;;;15.50;1.20;;;;;;;;;;5090188;28;20036;-62
2022/01/09 13:59:00;;;;;;;17.35;1.60;;;;;;;;;;5090350;28;20481;-62
2022/01/09 14:01:45;;;;;;;18.20;1.73;;;;;;;;;;5055226;28;20071;-62
2022/01/09 14:04:13;;;;;;;14.68;1.60;;;;;;;;;;5089866;28;20040;-62
2022/01/09 14:06:39;;;;;;;14.88;1.30;;;;;;;;;;5072219;28;20047;-61
2022/01/09 14:09:07;;;;;;;18.35;1.83;;;;;;;;;;5072473;28;20094;-63
2022/01/09 14:11:33;;;;;;;15.85;1.42;;;;;;;;;;5072164;28;20074;-62
2022/01/09 14:14:00;;;;;;;16.65;1.52;;;;;;;;;;5089081;28;20048;-62
2022/01/09 14:16:32;;;;;;;15.52;1.30;;;;;;;;;;5089850;28;20032;-62
2022/01/09 14:19:00;;;;;;;12.85;1.13;;;;;;;;;;5071376;28;20473;-62
2022/01/09 14:21:26;;;;;;;14.88;1.55;;;;;;;;;;5071893;28;20123;-62
2022/01/09 14:23:52;;;;;;;20.67;2.05;;;;;;;;;;5089970;28;20044;-62
2022/01/09 14:26:22;;;;;;;12.35;0.98;;;;;;;;;;5089274;28;20259;-63
2022/01/09 14:28:53;;;;;;;16.35;1.55;;;;;;;;;;5055136;28;20051;-62
2022/01/09 14:31:20;;;;;;;16.85;2.05;;;;;;;;;;5089473;28;20054;-62
2022/01/09 14:33:51;;;;;;;16.63;2.25;;;;;;;;;;5071185;28;20044;-62